Time;durP1;ratioP1;P1;durP2;ratioP2;P2;SDS_P1;SDS_P2;PMS_P1;PMS_P2;Temp;Humidity;BMP_temperature;BMP_pressure;BME280_temperature;BME280_humidity;BME280_pressure;Samples;Min_cycle;Max_cycle;Signal;HPM_P1;HPM_P2
2023/03/01 00:00:06;;;;;;;15.50;12.52;;;;;;;-4.30;100.00;103064.50;1055088;28;20297;-74
2023/03/01 00:00:46;;;;;;;15.52;11.50;;;;;;;-4.31;100.00;103060.22;1056278;28;20876;-74
2023/03/01 00:01:21;;;;;;;14.82;11.75;;;;;;;-4.29;100.00;103048.00;1054153;28;20365;-74
2023/03/01 00:01:53;;;;;;;16.23;12.10;;;;;;;-4.23;100.00;103060.72;1056603;28;20297;-74
2023/03/01 00:02:24;;;;;;;16.30;11.55;;;;;;;-4.22;100.00;103054.63;1056124;28;20301;-74
2023/03/01 00:02:56;;;;;;;22.48;12.02;;;;;;;-4.18;100.00;103058.78;1055465;28;20289;-74
2023/03/01 00:03:28;;;;;;;14.35;11.63;;;;;;;-4.16;100.00;103056.94;1056124;28;20305;-74
2023/03/01 00:03:59;;;;;;;16.27;11.10;;;;;;;-4.17;100.00;103062.22;1056011;28;20301;-74
2023/03/01 00:04:31;;;;;;;14.27;10.75;;;;;;;-4.15;100.00;103061.25;1058943;27;20285;-74
2023/03/01 00:05:03;;;;;;;13.23;10.90;;;;;;;-4.04;100.00;103058.19;1049520;28;20309;-74
2023/03/01 00:05:35;;;;;;;16.95;11.25;;;;;;;-4.00;100.00;103061.50;1052036;28;20298;-74
2023/03/01 00:06:06;;;;;;;12.45;10.02;;;;;;;-3.87;100.00;103066.09;1052878;28;20380;-74
2023/03/01 00:06:38;;;;;;;11.07;9.70;;;;;;;-3.88;100.00;103063.53;1051547;28;20298;-74
2023/03/01 00:07:10;;;;;;;13.73;11.65;;;;;;;-3.91;100.00;103058.47;1056179;28;20360;-74
2023/03/01 00:07:41;;;;;;;17.77;10.73;;;;;;;-3.94;100.00;103058.63;1056188;28;20309;-74
2023/03/01 00:08:13;;;;;;;12.50;10.65;;;;;;;-3.98;100.00;103051.88;1056323;28;20296;-74
2023/03/01 00:08:44;;;;;;;12.13;10.90;;;;;;;-4.04;100.00;103052.97;1060171;27;20349;-74
2023/03/01 00:09:17;;;;;;;13.25;10.52;;;;;;;-4.10;100.00;103064.50;1060121;27;20289;-74
2023/03/01 00:09:49;;;;;;;11.93;10.25;;;;;;;-4.13;100.00;103049.00;1056287;28;20304;-74
2023/03/01 00:10:20;;;;;;;14.18;10.85;;;;;;;-4.13;100.00;103054.22;1056812;27;20388;-74
2023/03/01 00:11:04;;;;;;;13.00;10.68;;;;;;;-4.00;100.00;103056.28;1060025;27;20658;-74
2023/03/01 00:11:35;;;;;;;13.38;10.50;;;;;;;-3.85;100.00;103048.63;1056203;28;20690;-75
2023/03/01 00:12:07;;;;;;;12.05;10.75;;;;;;;-3.82;100.00;103055.50;1059326;27;20301;-74
2023/03/01 00:12:39;;;;;;;20.02;12.52;;;;;;;-3.94;100.00;103056.00;1054629;28;20686;-75
2023/03/01 00:13:10;;;;;;;14.20;11.82;;;;;;;-4.02;100.00;103056.38;1050068;28;20282;-74
2023/03/01 00:13:43;;;;;;;14.40;10.90;;;;;;;-4.12;100.00;103049.84;1056018;28;20301;-74
2023/03/01 00:14:17;;;;;;;15.23;11.25;;;;;;;-4.23;100.00;103052.94;1056275;28;20801;-74
2023/03/01 00:14:48;;;;;;;13.10;10.98;;;;;;;-4.32;100.00;103055.94;1054741;28;20297;-74
2023/03/01 00:15:20;;;;;;;15.75;12.27;;;;;;;-4.33;100.00;103059.44;1056002;28;20304;-74
2023/03/01 00:15:52;;;;;;;13.54;11.86;;;;;;;-4.29;100.00;103055.81;1058728;27;20658;-75
2023/03/01 00:16:29;;;;;;;12.75;10.25;;;;;;;-4.38;100.00;103054.44;1056428;28;20117;-74
2023/03/01 00:17:01;;;;;;;14.30;10.95;;;;;;;-4.40;100.00;103047.59;1056677;28;20298;-75
2023/03/01 00:17:33;;;;;;;14.38;11.15;;;;;;;-4.34;100.00;103054.31;1056770;28;20286;-74
2023/03/01 00:18:05;;;;;;;11.48;9.73;;;;;;;-4.45;100.00;103049.53;1055647;28;20309;-74
2023/03/01 00:18:36;;;;;;;12.68;11.23;;;;;;;-4.46;100.00;103051.31;1056587;28;20289;-74
2023/03/01 00:19:15;;;;;;;12.40;10.18;;;;;;;-4.18;100.00;103053.56;1056519;28;20289;-75
2023/03/01 00:19:47;;;;;;;12.88;9.68;;;;;;;-3.93;100.00;103060.31;1055875;28;20293;-74
2023/03/01 00:20:18;;;;;;;13.05;11.00;;;;;;;-3.84;100.00;103052.94;1056544;28;20293;-75
2023/03/01 00:20:51;;;;;;;12.00;10.70;;;;;;;-3.83;100.00;103051.19;1056132;28;20313;-74
2023/03/01 00:21:24;;;;;;;19.15;11.30;;;;;;;-4.01;100.00;103057.22;1056297;28;20348;-74
2023/03/01 00:21:55;;;;;;;11.77;10.07;;;;;;;-4.02;100.00;103055.53;1056183;28;20297;-74
2023/03/01 00:22:28;;;;;;;15.25;10.68;;;;;;;-4.20;100.00;103047.59;1055811;28;20323;-75
2023/03/01 00:22:59;;;;;;;12.77;10.95;;;;;;;-4.31;100.00;103049.81;1053268;28;20305;-74
2023/03/01 00:23:34;;;;;;;13.80;10.57;;;;;;;-4.39;100.00;103049.28;1053621;28;20282;-74
2023/03/01 00:24:06;;;;;;;12.77;9.98;;;;;;;-4.25;100.00;103051.31;1056186;28;20289;-74
2023/03/01 00:24:37;;;;;;;15.23;11.18;;;;;;;-4.09;100.00;103050.59;1055937;28;20671;-74
2023/03/01 00:25:09;;;;;;;13.23;10.38;;;;;;;-4.09;100.00;103050.59;1056296;28;20289;-73
2023/03/01 00:25:42;;;;;;;14.93;10.48;;;;;;;-4.11;100.00;103049.81;1056069;28;20422;-74
2023/03/01 00:26:14;;;;;;;13.80;11.63;;;;;;;-4.11;100.00;103055.00;1054655;28;20689;-74
2023/03/01 00:26:46;;;;;;;14.15;11.48;;;;;;;-4.17;100.00;103050.06;1056076;28;20305;-74
2023/03/01 00:27:18;;;;;;;11.18;10.00;;;;;;;-4.28;100.00;103049.69;1054097;28;20274;-74
2023/03/01 00:27:49;;;;;;;12.73;11.43;;;;;;;-4.30;100.00;103054.09;1056099;28;20346;-74
2023/03/01 00:28:21;;;;;;;13.95;11.15;;;;;;;-4.23;100.00;103058.13;1056494;28;20289;-74
2023/03/01 00:28:53;;;;;;;11.73;10.43;;;;;;;-4.28;100.00;103048.84;1060539;27;20297;-74
2023/03/01 00:29:25;;;;;;;12.52;10.30;;;;;;;-4.27;100.00;103051.38;1057472;27;20347;-74
2023/03/01 00:29:57;;;;;;;12.65;10.75;;;;;;;-4.26;100.00;103063.47;1050789;28;20306;-74
2023/03/01 00:30:29;;;;;;;14.52;11.43;;;;;;;-4.42;100.00;103054.59;1051848;28;20431;-74
2023/03/01 00:31:11;;;;;;;11.57;10.32;;;;;;;-4.52;100.00;103053.31;1047771;28;20302;-74
2023/03/01 00:31:43;;;;;;;14.75;10.50;;;;;;;-4.54;100.00;103052.53;1044982;28;20295;-74
2023/03/01 00:32:14;;;;;;;14.68;11.27;;;;;;;-4.56;100.00;103054.34;1047531;28;20382;-74
2023/03/01 00:32:46;;;;;;;13.20;11.40;;;;;;;-4.43;100.00;103045.97;1047113;28;20307;-74
2023/03/01 00:33:18;;;;;;;15.35;11.60;;;;;;;-4.54;100.00;103050.78;1052349;28;20351;-74
2023/03/01 00:33:56;;;;;;;19.23;12.07;;;;;;;-4.65;100.00;103050.41;1056130;28;20297;-74
2023/03/01 00:34:28;;;;;;;16.13;13.52;;;;;;;-4.69;100.00;103054.84;1055650;28;20325;-74
2023/03/01 00:35:00;;;;;;;17.00;12.60;;;;;;;-4.61;100.00;103056.31;1059988;27;20300;-74
2023/03/01 00:35:34;;;;;;;17.20;13.40;;;;;;;-4.54;100.00;103053.38;1060580;27;20316;-74
2023/03/01 00:36:06;;;;;;;14.65;12.95;;;;;;;-4.46;100.00;103058.25;1060773;27;20296;-73
2023/03/01 00:36:38;;;;;;;13.75;11.43;;;;;;;-4.45;100.00;103054.75;1056436;28;20777;-75
2023/03/01 00:37:10;;;;;;;13.57;11.48;;;;;;;-4.22;100.00;103059.81;1047485;28;20302;-75
2023/03/01 00:37:42;;;;;;;18.85;11.77;;;;;;;-4.39;100.00;103057.09;1047473;28;20362;-75
2023/03/01 00:38:13;;;;;;;12.90;11.57;;;;;;;-4.36;100.00;103056.97;1047828;28;20406;-75
2023/03/01 00:38:45;;;;;;;14.38;12.55;;;;;;;-4.42;100.00;103046.81;1048567;28;20305;-75
2023/03/01 00:39:17;;;;;;;16.40;12.02;;;;;;;-4.45;100.00;103046.94;1047249;28;20310;-74
2023/03/01 00:39:48;;;;;;;17.38;11.55;;;;;;;-4.65;100.00;103049.56;1047946;28;20314;-74
2023/03/01 00:40:20;;;;;;;14.40;11.68;;;;;;;-4.77;100.00;103053.47;1045415;28;20306;-74
2023/03/01 00:40:52;;;;;;;13.75;11.68;;;;;;;-4.71;100.00;103043.66;1052160;28;20707;-75
2023/03/01 00:41:26;;;;;;;14.30;12.18;;;;;;;-4.77;100.00;103051.72;1052108;28;20369;-74
2023/03/01 00:41:58;;;;;;;17.95;11.68;;;;;;;-4.66;100.00;103051.28;1052965;28;20321;-74
2023/03/01 00:42:29;;;;;;;15.70;11.65;;;;;;;-4.46;100.00;103050.44;1045227;28;20372;-74
2023/03/01 00:43:01;;;;;;;14.93;11.88;;;;;;;-4.32;100.00;103048.13;1044216;28;20306;-74
2023/03/01 00:43:36;;;;;;;18.15;12.98;;;;;;;-4.16;100.00;103043.09;1043756;28;20295;-74
2023/03/01 00:44:08;;;;;;;13.68;11.75;;;;;;;-4.36;100.00;103047.41;1045400;28;20295;-74
2023/03/01 00:44:40;;;;;;;15.98;11.22;;;;;;;-4.24;100.00;103040.84;1051951;28;20298;-74
2023/03/01 00:45:13;;;;;;;13.05;11.68;;;;;;;-4.00;100.00;103044.13;1052820;28;20536;-74
2023/03/01 00:45:44;;;;;;;15.44;12.38;;;;;;;-3.87;100.00;103047.00;1056142;28;20705;-75
2023/03/01 00:46:19;;;;;;;16.10;12.02;;;;;;;-3.90;100.00;103049.75;1056386;28;20035;-74
2023/03/01 00:46:51;;;;;;;12.82;11.43;;;;;;;-3.77;100.00;103040.50;1055688;28;20454;-74
2023/03/01 00:47:22;;;;;;;12.63;10.82;;;;;;;-3.73;100.00;103047.25;1056392;28;20300;-74
2023/03/01 00:47:54;;;;;;;12.95;10.82;;;;;;;-3.81;100.00;103036.34;1056616;28;20301;-74
2023/03/01 00:48:25;;;;;;;14.75;11.48;;;;;;;-3.88;100.00;103042.72;1054953;28;20309;-74
2023/03/01 00:48:57;;;;;;;14.22;11.18;;;;;;;-3.96;100.00;103042.22;1055242;28;20533;-74
2023/03/01 00:49:29;;;;;;;11.92;10.66;;;;;;;-4.01;100.00;103041.59;1056315;28;20044;-74
2023/03/01 00:50:00;;;;;;;13.30;10.75;;;;;;;-4.14;100.00;103030.84;1056226;28;20036;-74
2023/03/01 00:50:32;;;;;;;14.90;11.52;;;;;;;-4.34;100.00;103036.09;1056232;28;20301;-74
2023/03/01 00:51:09;;;;;;;13.70;12.00;;;;;;;-4.34;100.00;103038.69;1056060;28;20301;-74
2023/03/01 00:51:41;;;;;;;15.65;11.57;;;;;;;-4.52;100.00;103035.13;1051962;28;20294;-74
2023/03/01 00:52:13;;;;;;;12.95;10.73;;;;;;;-4.55;100.00;103035.25;1051545;28;20313;-74
2023/03/01 00:52:45;;;;;;;13.88;10.45;;;;;;;-4.64;100.00;103036.47;1055614;28;20305;-74
2023/03/01 00:53:16;;;;;;;13.50;9.82;;;;;;;-4.57;100.00;103026.66;1056160;28;20293;-74
2023/03/01 00:53:51;;;;;;;15.85;10.23;;;;;;;-4.45;100.00;103031.34;1056216;28;20289;-74
2023/03/01 00:54:22;;;;;;;11.35;10.15;;;;;;;-4.46;100.00;103034.84;1047502;28;20298;-74
2023/03/01 00:54:54;;;;;;;15.05;10.88;;;;;;;-4.47;100.00;103035.75;1048354;28;20356;-74
2023/03/01 00:55:26;;;;;;;12.50;10.52;;;;;;;-4.52;100.00;103028.16;1042471;28;20804;-74
2023/03/01 00:55:58;;;;;;;12.85;10.80;;;;;;;-4.55;100.00;103030.88;1043913;28;20303;-74
2023/03/01 00:56:30;;;;;;;14.18;10.95;;;;;;;-4.57;100.00;103037.06;1051886;28;20307;-74
2023/03/01 00:57:02;;;;;;;13.80;11.50;;;;;;;-4.60;100.00;103032.00;1044579;28;22007;-74
2023/03/01 00:57:34;;;;;;;13.20;11.60;;;;;;;-4.66;100.00;103033.06;1051926;28;20321;-74
2023/03/01 00:58:06;;;;;;;14.63;11.60;;;;;;;-4.53;100.00;103036.03;1047538;28;20299;-74
2023/03/01 00:58:38;;;;;;;14.60;11.68;;;;;;;-4.48;100.00;103031.47;1044403;28;20871;-74
2023/03/01 00:59:09;;;;;;;11.93;10.60;;;;;;;-4.28;100.00;103036.69;1047772;28;20694;-74
2023/03/01 00:59:41;;;;;;;12.25;10.80;;;;;;;-4.21;100.00;103034.66;1047625;28;20327;-74
2023/03/01 01:00:13;;;;;;;17.95;11.50;;;;;;;-4.15;100.00;103039.56;1044205;28;20307;-74
2023/03/01 01:00:44;;;;;;;14.07;12.02;;;;;;;-4.08;100.00;103031.47;1052262;28;20294;-74
2023/03/01 01:01:19;;;;;;;12.55;10.65;;;;;;;-4.20;100.00;103031.97;1049227;28;20298;-74
2023/03/01 01:01:51;;;;;;;14.75;11.15;;;;;;;-4.24;100.00;103030.44;1048303;28;20294;-74
2023/03/01 01:02:22;;;;;;;12.30;11.10;;;;;;;-4.25;100.00;103033.09;1047457;28;20298;-74
2023/03/01 01:02:54;;;;;;;13.77;11.27;;;;;;;-4.33;100.00;103033.44;1048588;28;20298;-74
2023/03/01 01:03:26;;;;;;;12.98;10.73;;;;;;;-4.43;100.00;103037.31;1054819;28;20328;-74
2023/03/01 01:04:00;;;;;;;12.35;10.85;;;;;;;-4.57;100.00;103037.06;1055647;28;20309;-74
2023/03/01 01:04:32;;;;;;;15.60;10.90;;;;;;;-4.68;100.00;103029.69;1050929;28;20430;-74
2023/03/01 01:05:04;;;;;;;13.88;12.35;;;;;;;-4.74;100.00;103030.81;1047443;28;20365;-74
2023/03/01 01:05:37;;;;;;;15.02;11.15;;;;;;;-4.73;100.00;103035.09;1047615;28;20299;-74
2023/03/01 01:06:17;;;;;;;13.48;11.38;;;;;;;-4.77;100.00;103035.28;1043859;28;20307;-74
2023/03/01 01:06:48;;;;;;;11.98;10.68;;;;;;;-4.62;100.00;103033.81;1044856;28;20299;-74
2023/03/01 01:07:20;;;;;;;13.73;11.68;;;;;;;-4.54;100.00;103031.72;1047854;28;20312;-74
2023/03/01 01:07:51;;;;;;;12.75;11.45;;;;;;;-4.36;100.00;103029.22;1049163;28;20303;-74
2023/03/01 01:08:23;;;;;;;13.70;11.27;;;;;;;-4.28;100.00;103031.47;1052167;28;20313;-75
2023/03/01 01:08:55;;;;;;;16.77;12.48;;;;;;;-4.24;100.00;103027.81;1051721;28;20783;-74
2023/03/01 01:09:27;;;;;;;14.90;11.15;;;;;;;-4.24;100.00;103030.44;1048090;28;20684;-74
2023/03/01 01:09:58;;;;;;;13.27;10.68;;;;;;;-4.12;100.00;103026.44;1043334;28;20797;-74
2023/03/01 01:10:30;;;;;;;14.93;11.55;;;;;;;-4.05;100.00;103031.31;1043069;28;20302;-74
2023/03/01 01:11:02;;;;;;;12.88;11.05;;;;;;;-3.95;100.00;103033.50;1044060;28;20302;-74
2023/03/01 01:11:35;;;;;;;13.60;10.70;;;;;;;-3.94;100.00;103022.19;1043347;28;20299;-74
2023/03/01 01:12:07;;;;;;;12.68;11.43;;;;;;;-3.86;100.00;103025.28;1043327;28;20295;-74
2023/03/01 01:12:38;;;;;;;12.82;11.52;;;;;;;-3.88;100.00;103016.69;1042554;28;20300;-74
2023/03/01 01:13:10;;;;;;;14.13;11.70;;;;;;;-3.91;100.00;103014.22;1045560;28;20310;-74
2023/03/01 01:13:44;;;;;;;12.95;10.98;;;;;;;-3.94;100.00;103022.19;1048262;28;20310;-74
2023/03/01 01:14:17;;;;;;;13.90;11.04;;;;;;;-3.91;100.00;103017.69;1047576;28;20295;-74
2023/03/01 01:14:48;;;;;;;15.64;11.62;;;;;;;-3.89;100.00;103015.84;1045956;28;20410;-74
2023/03/01 01:15:20;;;;;;;13.77;12.30;;;;;;;-3.86;100.00;103020.06;1045174;28;20041;-74
2023/03/01 01:15:51;;;;;;;14.60;12.57;;;;;;;-3.91;100.00;103011.63;1047842;28;20291;-73
2023/03/01 01:16:25;;;;;;;12.40;11.02;;;;;;;-3.93;100.00;103021.25;1047306;28;20780;-73
2023/03/01 01:16:57;;;;;;;13.16;11.12;;;;;;;-3.93;100.00;103013.44;1039944;28;20304;-74
2023/03/01 01:17:29;;;;;;;13.05;11.45;;;;;;;-3.95;100.00;103015.28;1040104;28;20511;-74
2023/03/01 01:18:01;;;;;;;14.77;11.07;;;;;;;-4.01;100.00;103015.56;1043182;28;20299;-74
2023/03/01 01:18:33;;;;;;;15.02;12.36;;;;;;;-3.99;100.00;103018.94;1044866;28;20805;-74
2023/03/01 01:19:04;;;;;;;15.78;13.16;;;;;;;-4.07;100.00;103012.31;1047794;28;20098;-74
2023/03/01 01:19:36;;;;;;;14.60;12.48;;;;;;;-4.09;100.00;103014.16;1052162;28;20425;-74
2023/03/01 01:20:08;;;;;;;13.30;10.44;;;;;;;-4.19;100.00;103007.66;1056116;28;20047;-74
2023/03/01 01:20:40;;;;;;;12.70;11.23;;;;;;;-4.17;100.00;103011.03;1055239;28;20401;-74
2023/03/01 01:21:16;;;;;;;13.57;12.18;;;;;;;-4.12;100.00;102998.66;1055580;28;20300;-74
2023/03/01 01:21:48;;;;;;;14.40;10.52;;;;;;;-4.22;100.00;103007.78;1049573;28;20394;-74
2023/03/01 01:22:19;;;;;;;11.46;10.26;;;;;;;-4.15;100.00;103009.19;1055970;28;20395;-74
2023/03/01 01:22:51;;;;;;;12.65;11.27;;;;;;;-4.15;100.00;103004.00;1056262;28;20517;-74
2023/03/01 01:23:23;;;;;;;15.57;12.88;;;;;;;-4.14;100.00;103000.47;1056537;28;20790;-74
2023/03/01 01:23:56;;;;;;;15.90;12.92;;;;;;;-4.16;100.00;103002.31;1060460;28;20826;-74
2023/03/01 01:24:28;;;;;;;14.30;11.07;;;;;;;-4.11;100.00;103000.38;1060354;28;20560;-74
2023/03/01 01:24:59;;;;;;;14.94;12.12;;;;;;;-4.11;100.00;102995.16;1050479;28;20301;-74
2023/03/01 01:25:34;;;;;;;15.52;12.00;;;;;;;-4.12;100.00;103003.84;1050424;28;20040;-74
2023/03/01 01:26:18;;;;;;;15.30;12.08;;;;;;;-4.14;100.00;103000.47;1051846;28;20309;-74
2023/03/01 01:26:49;;;;;;;15.24;11.86;;;;;;;-4.13;100.00;102999.56;1052657;28;20048;-74
2023/03/01 01:27:21;;;;;;;13.72;11.92;;;;;;;-4.09;100.00;102998.53;1058503;28;20050;-74
2023/03/01 01:27:52;;;;;;;13.46;11.40;;;;;;;-4.18;100.00;103004.13;1057184;28;20035;-74
2023/03/01 01:28:24;;;;;;;14.28;11.64;;;;;;;-4.15;100.00;103009.19;1051316;28;20044;-74
2023/03/01 01:28:56;;;;;;;12.98;11.55;;;;;;;-4.17;100.00;103000.63;1051688;28;20093;-75
2023/03/01 01:29:28;;;;;;;12.43;11.20;;;;;;;-4.15;100.00;103003.16;1047728;28;20295;-74
2023/03/01 01:30:00;;;;;;;14.77;12.30;;;;;;;-4.14;100.00;103010.88;1047298;28;20295;-73
2023/03/01 01:30:31;;;;;;;16.92;12.04;;;;;;;-4.11;100.00;103005.56;1052437;28;20797;-74
2023/03/01 01:31:04;;;;;;;17.50;12.18;;;;;;;-4.06;100.00;103003.59;1051609;28;20044;-74
2023/03/01 01:31:37;;;;;;;15.02;11.98;;;;;;;-4.03;100.00;103001.78;1055942;28;20812;-74
2023/03/01 01:32:09;;;;;;;16.28;12.06;;;;;;;-4.03;100.00;103000.03;1055339;28;20393;-74
2023/03/01 01:32:41;;;;;;;14.48;11.88;;;;;;;-4.09;100.00;103001.16;1051800;28;20047;-74
2023/03/01 01:33:12;;;;;;;14.32;11.95;;;;;;;-4.28;100.00;102997.66;1048509;28;20424;-74
2023/03/01 01:33:45;;;;;;;14.20;12.43;;;;;;;-4.39;100.00;102995.50;1051388;28;20822;-74
2023/03/01 01:34:20;;;;;;;14.90;12.27;;;;;;;-4.50;100.00;103004.69;1048189;28;20323;-74
2023/03/01 01:34:52;;;;;;;16.83;11.35;;;;;;;-4.56;100.00;102994.56;1052415;28;20302;-74
2023/03/01 01:35:23;;;;;;;14.10;11.93;;;;;;;-4.37;100.00;103004.09;1052578;28;20290;-74
2023/03/01 01:35:55;;;;;;;13.77;11.60;;;;;;;-4.25;100.00;103007.91;1049548;28;20307;-74
2023/03/01 01:36:27;;;;;;;17.58;14.52;;;;;;;-4.17;100.00;103000.63;1052547;28;20423;-75
2023/03/01 01:37:02;;;;;;;13.80;11.98;;;;;;;-4.28;100.00;103002.00;1051044;28;20294;-74
2023/03/01 01:37:34;;;;;;;17.58;11.57;;;;;;;-4.38;100.00;103006.78;1049519;28;20544;-74
2023/03/01 01:38:05;;;;;;;14.66;12.82;;;;;;;-4.47;100.00;103001.94;1053466;28;20867;-74
2023/03/01 01:38:38;;;;;;;12.92;11.54;;;;;;;-4.57;100.00;103003.25;1052716;28;20583;-74
2023/03/01 01:39:12;;;;;;;14.65;12.32;;;;;;;-4.59;100.00;103008.53;1053854;27;20048;-74
2023/03/01 01:39:44;;;;;;;12.10;10.80;;;;;;;-4.44;100.00;103004.41;1056336;28;20297;-74
2023/03/01 01:40:16;;;;;;;14.23;11.77;;;;;;;-4.42;100.00;103007.78;1053481;28;20078;-75
2023/03/01 01:40:49;;;;;;;15.02;11.64;;;;;;;-4.56;100.00;103008.41;1052473;28;20294;-75
2023/03/01 01:41:22;;;;;;;13.42;11.50;;;;;;;-4.60;100.00;103009.44;1053126;28;20047;-74
2023/03/01 01:41:53;;;;;;;15.95;11.85;;;;;;;-4.72;100.00;103007.34;1053349;28;20048;-74
2023/03/01 01:42:25;;;;;;;14.77;11.25;;;;;;;-4.73;100.00;103006.50;1048149;28;20313;-74
2023/03/01 01:42:57;;;;;;;14.23;10.85;;;;;;;-4.86;100.00;103009.69;1045822;28;20307;-74
2023/03/01 01:43:35;;;;;;;14.32;11.60;;;;;;;-4.91;100.00;103004.69;1044535;28;20306;-74
2023/03/01 01:44:23;;;;;;;17.98;11.58;;;;;;;-5.00;100.00;103002.44;1046934;28;20851;-74
2023/03/01 01:45:39;;;;;;;12.42;10.70;;;;;;;-4.74;100.00;103007.41;1051835;28;20040;-75
2023/03/01 01:46:32;;;;;;;15.07;10.25;;;;;;;-4.57;100.00;103000.66;1052688;28;20050;-75
2023/03/01 01:47:16;;;;;;;19.08;11.05;;;;;;;-4.75;100.00;102997.91;1052320;28;20878;-75
2023/03/01 01:47:48;;;;;;;14.80;10.43;;;;;;;-4.73;100.00;103000.44;1048189;28;20306;-74
2023/03/01 01:48:22;;;;;;;15.28;10.78;;;;;;;-4.79;100.00;102996.34;1043484;28;20525;-75
2023/03/01 01:48:57;;;;;;;14.63;10.93;;;;;;;-4.80;100.00;103002.47;1045286;28;20041;-75
2023/03/01 01:49:29;;;;;;;12.45;11.15;;;;;;;-4.84;100.00;102998.31;1046636;28;20324;-75
2023/03/01 01:50:01;;;;;;;13.80;10.43;;;;;;;-4.86;100.00;103005.31;1049482;28;20294;-75
2023/03/01 01:50:37;;;;;;;12.38;11.07;;;;;;;-4.98;100.00;102995.41;1044710;28;20311;-74
2023/03/01 01:51:18;;;;;;;13.73;10.73;;;;;;;-5.04;100.00;103000.88;1049685;28;20306;-75
2023/03/01 01:51:52;;;;;;;13.10;11.02;;;;;;;-5.05;100.00;103001.78;1048233;28;20307;-74
2023/03/01 01:52:27;;;;;;;17.58;11.82;;;;;;;-5.09;100.00;103002.81;1049440;28;20049;-74
2023/03/01 01:52:59;;;;;;;14.82;11.10;;;;;;;-5.13;100.00;102998.66;1052554;28;20348;-75
2023/03/01 01:53:30;;;;;;;14.80;10.57;;;;;;;-5.13;100.00;102998.66;1055639;27;20861;-74
2023/03/01 01:54:02;;;;;;;13.32;11.88;;;;;;;-5.16;100.00;103003.97;1057384;27;20821;-74
2023/03/01 01:54:49;;;;;;;14.75;11.63;;;;;;;-5.16;100.00;103006.56;1061252;27;20292;-74
2023/03/01 01:55:23;;;;;;;12.80;10.30;;;;;;;-5.18;100.00;103004.03;1052199;28;20309;-74
2023/03/01 01:55:58;;;;;;;14.23;11.07;;;;;;;-5.17;100.00;103013.53;1051040;28;20310;-74
2023/03/01 01:56:30;;;;;;;18.52;11.88;;;;;;;-5.09;100.00;103008.00;1042936;28;20299;-74
2023/03/01 01:57:16;;;;;;;13.98;11.63;;;;;;;-5.00;100.00;103011.06;1046819;28;20791;-73
2023/03/01 01:57:56;;;;;;;15.57;12.05;;;;;;;-5.06;100.00;103007.88;1046230;28;20533;-74
2023/03/01 01:58:29;;;;;;;11.80;10.48;;;;;;;-5.05;100.00;103005.22;1047631;28;20443;-74
2023/03/01 01:59:01;;;;;;;14.00;11.65;;;;;;;-5.10;100.00;103003.72;1046545;28;20037;-74
2023/03/01 01:59:33;;;;;;;13.77;12.02;;;;;;;-5.15;100.00;103003.06;1043909;28;20300;-74
2023/03/01 02:00:08;;;;;;;13.27;10.13;;;;;;;-5.15;100.00;103005.66;1047082;28;20303;-74
2023/03/01 02:00:49;;;;;;;13.45;10.32;;;;;;;-5.10;100.00;103003.72;1052972;28;20283;-74
2023/03/01 02:01:21;;;;;;;13.70;11.38;;;;;;;-4.82;100.00;103003.44;1050758;28;20302;-74
2023/03/01 02:01:54;;;;;;;14.45;12.40;;;;;;;-4.74;100.00;103002.19;1052323;28;20456;-74
2023/03/01 02:02:26;;;;;;;15.50;12.00;;;;;;;-4.65;100.00;103000.16;1048160;28;20692;-74
2023/03/01 02:03:05;;;;;;;13.55;12.05;;;;;;;-4.57;100.00;102990.25;1050845;28;20317;-74
2023/03/01 02:03:41;;;;;;;12.32;10.82;;;;;;;-4.56;100.00;102999.75;1048546;28;20345;-73
2023/03/01 02:04:13;;;;;;;13.35;11.95;;;;;;;-4.47;100.00;102991.53;1046555;28;20348;-74
2023/03/01 02:04:47;;;;;;;15.30;12.40;;;;;;;-4.42;100.00;102994.78;1045895;28;20692;-74
2023/03/01 02:05:59;;;;;;;13.93;12.20;;;;;;;-4.49;100.00;102999.41;1045740;28;20319;-74
2023/03/01 02:06:34;;;;;;;13.55;11.95;;;;;;;-4.46;100.00;102994.09;1045603;28;20783;-74
2023/03/01 02:07:20;;;;;;;14.98;12.05;;;;;;;-4.39;100.00;102992.06;1050223;28;20688;-74
2023/03/01 02:07:52;;;;;;;15.48;11.60;;;;;;;-4.31;100.00;103000.38;1051317;28;20305;-74
2023/03/01 02:08:26;;;;;;;15.90;12.32;;;;;;;-4.24;100.00;102998.34;1047045;28;20302;-74
2023/03/01 02:09:06;;;;;;;16.75;10.73;;;;;;;-4.24;100.00;102999.19;1051366;28;20305;-74
2023/03/01 02:09:38;;;;;;;16.10;12.05;;;;;;;-4.24;100.00;102993.16;1048181;28;20389;-74
2023/03/01 02:10:10;;;;;;;17.75;11.85;;;;;;;-4.19;100.00;102989.44;1052173;28;20298;-73
2023/03/01 02:10:42;;;;;;;20.70;13.60;;;;;;;-4.14;100.00;102987.47;1056702;28;20321;-74
2023/03/01 02:11:14;;;;;;;14.50;12.05;;;;;;;-4.14;100.00;102994.44;1052980;28;20309;-74
2023/03/01 02:11:47;;;;;;;14.23;12.35;;;;;;;-4.10;100.00;102994.25;1052278;28;20301;-74
2023/03/01 02:12:22;;;;;;;12.73;11.43;;;;;;;-4.14;100.00;102990.06;1048506;28;20338;-74
2023/03/01 02:12:54;;;;;;;19.20;13.68;;;;;;;-4.13;100.00;102991.75;1047606;28;20354;-74
2023/03/01 02:13:26;;;;;;;14.15;12.35;;;;;;;-4.11;100.00;102986.47;1053491;28;20393;-74
2023/03/01 02:13:58;;;;;;;15.05;11.85;;;;;;;-4.18;100.00;102983.31;1052132;28;20348;-74
2023/03/01 02:14:30;;;;;;;15.88;11.98;;;;;;;-4.13;100.00;102985.72;1053439;28;20290;-74
2023/03/01 02:15:02;;;;;;;16.90;11.82;;;;;;;-4.10;100.00;102986.44;1056512;28;20325;-74
2023/03/01 02:15:36;;;;;;;13.38;11.90;;;;;;;-4.16;100.00;102989.28;1056730;28;20677;-74
2023/03/01 02:16:09;;;;;;;14.75;11.57;;;;;;;-4.10;100.00;102985.59;1056891;28;20277;-74
2023/03/01 02:16:42;;;;;;;15.77;12.50;;;;;;;-4.17;100.00;102987.59;1052486;28;20378;-72
2023/03/01 02:17:15;;;;;;;14.70;12.90;;;;;;;-4.16;100.00;102991.91;1052263;28;20286;-74
2023/03/01 02:17:48;;;;;;;16.92;11.48;;;;;;;-4.20;100.00;102987.75;1052007;28;20306;-74
2023/03/01 02:18:21;;;;;;;13.75;12.35;;;;;;;-4.18;100.00;102980.72;1057057;28;20359;-74
2023/03/01 02:18:53;;;;;;;14.02;12.63;;;;;;;-4.17;100.00;102984.16;1056742;28;20300;-74
2023/03/01 02:19:34;;;;;;;13.26;11.60;;;;;;;-4.16;100.00;102981.50;1048009;28;20298;-74
2023/03/01 02:20:24;;;;;;;;;;;;;;;-4.12;100.00;102982.19;1047493;28;20048;-74
2023/03/01 02:21:20;;;;;;;13.60;10.40;;;;;;;-4.17;100.00;102982.41;1051586;28;19975;-74
2023/03/01 02:22:06;;;;;;;14.38;11.70;;;;;;;-4.16;100.00;102981.50;1056793;28;20293;-74
2023/03/01 02:22:39;;;;;;;14.00;10.70;;;;;;;-4.18;100.00;102980.72;1049638;28;20299;-74
2023/03/01 02:23:10;;;;;;;13.10;11.50;;;;;;;-4.18;100.00;102975.50;1047561;28;20900;-74
2023/03/01 02:23:43;;;;;;;16.27;11.65;;;;;;;-4.18;100.00;102978.09;1044668;28;20307;-74
2023/03/01 02:24:37;;;;;;;13.43;11.68;;;;;;;-4.13;100.00;102981.34;1049122;28;20295;-74
2023/03/01 02:25:23;;;;;;;14.25;11.13;;;;;;;-4.31;100.00;102983.94;1047688;28;20345;-74
2023/03/01 02:26:09;;;;;;;14.48;11.02;;;;;;;-4.33;100.00;102981.41;1052907;28;20297;-74
2023/03/01 02:26:45;;;;;;;17.63;12.63;;;;;;;-4.39;100.00;102981.66;1056741;28;20046;-74
2023/03/01 02:27:18;;;;;;;12.32;11.02;;;;;;;-4.33;100.00;102978.81;1054085;28;20304;-74
2023/03/01 02:28:07;;;;;;;14.82;12.75;;;;;;;-4.43;100.00;102977.50;1059978;27;20304;-73
2023/03/01 02:28:40;;;;;;;19.77;11.98;;;;;;;-4.53;100.00;102981.41;1060836;27;20733;-74
2023/03/01 02:29:12;;;;;;;13.92;12.44;;;;;;;-4.65;100.00;102972.41;1056593;28;20297;-75
2023/03/01 02:29:44;;;;;;;12.60;10.77;;;;;;;-4.70;100.00;102974.31;1056517;28;20418;-74
2023/03/01 02:30:19;;;;;;;14.35;11.05;;;;;;;-4.63;100.00;102972.31;1057148;27;20293;-74
2023/03/01 02:31:41;;;;;;;15.10;10.55;;;;;;;-4.63;100.00;102974.94;1050257;28;20131;-74
2023/03/01 02:32:13;;;;;;;17.40;11.77;;;;;;;-4.62;100.00;102976.63;1055669;28;20036;-74
2023/03/01 02:32:45;;;;;;;13.65;11.57;;;;;;;-4.81;100.00;102972.19;1056494;28;20301;-74